Terminal Aerodrome Forecast
Issued by NWS

Home | Current Version | Previous Version | Text Only | Print | Product List | Glossary On
Versions: 1 2 3 4 5 6 7 8 9 10 11 12 13
000
FTUS41 KCAR 192320
TAFFVE
TAF
KFVE 192320Z 2000/2024 31012KT P6SM FEW250
     FM200400 05004KT P6SM SCT250
     FM201100 11005KT P6SM FEW250
     FM201500 13009KT P6SM FEW250=

USA.gov is the U.S. government's official web portal to all federal, state and local government web resources and services.